Airfield :
LOGIN :

Register | Disclaimer

   EN    FR    IT 

 










Legend :    VFR   Marginal VFR   IFR   Intensive IFR   Very Intensive IFR
Visi :
Ceiling :
>= 8 km
>= 3000ft
5 to 8 km
1000 to 3000 ft
1500m to 5 km
500 to 1000 ft
800 to 1500m
200 to 500 ft
< 800m
< 200 ft
Symbols :   Thunderstorms  Fog  Heavy snow  Heavy precipitations  Wind > 20 kt
SIGMETs :     Misc.  Thunderstorms  Icing  Turbulence  Mountain Waves  Volcanic Ashes







- Airport Elevation : 327 ft
- IATA code : BHX
- Download approach charts


EGBB - Birmingham

CURRENT METAR :
  • 251850Z 17003KT CAVOK 12/07 Q1033

EXPIRED METARs :
  • 251820Z 21004KT 160V240 CAVOK 14/07 Q1034
  • 251750Z 20005KT 160V250 CAVOK 15/07 Q1034
  • 251720Z 21005KT 160V260 CAVOK 15/06 Q1034
  • 251650Z 21006KT 170V260 CAVOK 15/06 Q1034
  • 251620Z 21007KT 170V250 CAVOK 16/06 Q1034

TAF TAF EGBB
Valid from the 25 at 18:00 until the 26 at 18:00 UTC


251653Z 2518/2618 20006KT 9999 FEW045
PROB30
TEMPO 2603/2609 9000
ATIS : +44 121 780 0910
No reported NOTAMs for that airfield.
1 SIGMET reported for the London FIR (EGTT) :
 
Severe mountain waves
EGTT SIGMET 01 VALID 251800/252200 EGRR
EGTT LONDON FIR SEV MTW FCST WI N5421 W00004 - N5311 W00204 - N5500 W00356 - N5500 W00100 - N5500 W00021 - N5421 W00004 FL030/200 STNR NC=



MET'MAP, your aeronautical weather chart ! - Copyright ORBIFLY December 2007 - Disclaimer

ORBIFLY MET'MAP TEAM :

Programming & Development : Alexandra Zaïnal
Concept & Development : Baudouin d'Aumeries
Co-Development & Prog : Marc-Olivier Méhu
Technical & hardware support : Manuel Goepfert

Contact : metmap@orbifly.com




SOURCES & CREDITS :

   NOAA